createdAt,value
2023-04-11T00:01:24.832Z,11.32
2023-04-11T00:03:53.441Z,11.33
2023-04-11T00:06:21.601Z,11.32
2023-04-11T00:08:49.973Z,11.32
2023-04-11T00:11:19.106Z,11.32
2023-04-11T00:13:50.338Z,11.31
2023-04-11T00:16:20.736Z,11.29
2023-04-11T00:18:49.238Z,11.27
2023-04-11T00:21:19.805Z,11.29
2023-04-11T00:23:49.107Z,11.26
2023-04-11T00:26:17.128Z,11.26
2023-04-11T00:28:51.555Z,11.28
2023-04-11T00:31:20.682Z,11.29
2023-04-11T00:33:48.620Z,11.26
2023-04-11T00:36:16.795Z,11.24
2023-04-11T00:38:46.505Z,11.22
2023-04-11T00:41:17.973Z,11.21
2023-04-11T00:43:49.879Z,11.20
2023-04-11T00:46:21.101Z,11.15
2023-04-11T00:48:49.247Z,11.12
2023-04-11T00:51:26.298Z,11.11
2023-04-11T00:53:56.624Z,11.09
2023-04-11T00:56:24.720Z,11.09
2023-04-11T00:58:53.782Z,11.09
2023-04-11T01:01:25.271Z,11.08
2023-04-11T01:03:53.790Z,11.06
2023-04-11T01:06:22.596Z,11.05
2023-04-11T01:08:55.790Z,11.05
2023-04-11T01:11:24.335Z,11.05
2023-04-11T01:13:52.755Z,11.03
2023-04-11T01:16:21.795Z,11.00
2023-04-11T01:18:50.037Z,10.97
2023-04-11T01:21:19.522Z,10.94
2023-04-11T01:23:52.962Z,10.91
2023-04-11T01:26:21.556Z,10.90
2023-04-11T01:28:49.871Z,10.89
2023-04-11T01:31:18.313Z,10.88
2023-04-11T01:33:46.368Z,10.84
2023-04-11T01:36:14.847Z,10.81
2023-04-11T01:38:49.053Z,10.77
2023-04-11T01:41:19.916Z,10.73
2023-04-11T01:43:47.920Z,10.70
2023-04-11T01:46:16.397Z,10.66
2023-04-11T01:48:45.930Z,10.62
2023-04-11T01:51:15.102Z,10.58
2023-04-11T01:53:49.227Z,10.55
2023-04-11T01:56:17.312Z,10.54
2023-04-11T01:58:47.798Z,10.52
2023-04-11T02:01:19.273Z,10.49
2023-04-11T02:03:48.893Z,10.47
2023-04-11T02:06:17.238Z,10.44
2023-04-11T02:08:54.114Z,10.42
2023-04-11T02:11:22.965Z,10.40
2023-04-11T02:13:52.654Z,10.39
2023-04-11T02:16:26.128Z,10.38
2023-04-11T02:18:55.059Z,10.36
2023-04-11T02:21:23.431Z,10.33
2023-04-11T02:23:54.708Z,10.32
2023-04-11T02:26:25.232Z,10.30
2023-04-11T02:28:53.243Z,10.28
2023-04-11T02:31:24.985Z,10.27
2023-04-11T02:33:53.518Z,10.25
2023-04-11T02:36:21.482Z,10.21
2023-04-11T02:38:51.936Z,10.18
2023-04-11T02:41:20.274Z,10.14
2023-04-11T02:43:51.456Z,10.12
2023-04-11T02:46:24.939Z,10.10
2023-04-11T02:48:53.299Z,10.07
2023-04-11T02:51:21.753Z,10.00
2023-04-11T02:53:49.976Z,9.97
2023-04-11T02:56:25.986Z,9.97
2023-04-11T02:58:58.002Z,9.99
2023-04-11T03:01:26.835Z,10.00
2023-04-11T03:04:00.422Z,9.98
2023-04-11T03:06:37.973Z,9.95
2023-04-11T03:09:05.978Z,9.94
2023-04-11T03:11:35.574Z,9.93
2023-04-11T03:14:04.617Z,9.92
2023-04-11T03:16:39.506Z,9.88
2023-04-11T03:19:11.562Z,9.82
2023-04-11T03:21:40.024Z,9.78
2023-04-11T03:24:08.916Z,9.76
2023-04-11T03:26:40.281Z,9.75
2023-04-11T03:29:11.628Z,9.75
2023-04-11T03:31:47.761Z,9.78
2023-04-11T03:34:18.189Z,9.80
2023-04-11T03:36:47.626Z,9.81
2023-04-11T03:39:16.187Z,9.80
2023-04-11T03:41:44.301Z,9.79
2023-04-11T03:44:12.961Z,9.78
2023-04-11T03:46:41.189Z,9.81
2023-04-11T03:49:09.913Z,9.87
2023-04-11T03:51:37.874Z,9.91
2023-04-11T03:54:07.734Z,9.95
2023-04-11T03:56:41.632Z,9.99
2023-04-11T03:59:20.952Z,10.05
2023-04-11T04:01:54.633Z,10.11
2023-04-11T04:04:23.159Z,10.15
2023-04-11T04:07:01.974Z,10.23
2023-04-11T04:09:36.998Z,10.44
2023-04-11T04:12:05.755Z,10.95
2023-04-11T04:14:54.856Z,11.39
2023-04-11T04:17:25.785Z,11.45
2023-04-11T04:19:54.294Z,11.42
2023-04-11T04:22:26.773Z,11.40
2023-04-11T04:24:58.435Z,11.36
2023-04-11T04:27:34.905Z,11.33
2023-04-11T04:30:04.667Z,11.33
2023-04-11T04:32:59.056Z,11.31
2023-04-11T04:35:27.669Z,11.32
2023-04-11T04:37:57.759Z,11.36
2023-04-11T04:40:45.663Z,11.39
2023-04-11T04:43:20.964Z,11.48
2023-04-11T04:45:58.803Z,12.04
2023-04-11T04:48:39.613Z,12.99
2023-04-11T04:51:08.068Z,13.87
2023-04-11T04:53:51.275Z,14.73
2023-04-11T04:56:20.468Z,15.41
2023-04-11T04:58:48.807Z,16.10
2023-04-11T05:01:28.067Z,16.74
2023-04-11T05:04:01.943Z,17.29
2023-04-11T05:06:43.463Z,17.72
2023-04-11T05:09:14.602Z,18.14
2023-04-11T05:11:43.587Z,18.51
2023-04-11T05:14:11.667Z,18.85
2023-04-11T05:16:45.065Z,19.20
2023-04-11T05:19:14.586Z,19.52
2023-04-11T05:21:46.619Z,19.78
2023-04-11T05:24:16.620Z,20.05
2023-04-11T05:26:47.070Z,20.41
2023-04-11T05:29:18.147Z,20.62
2023-04-11T05:31:53.040Z,20.75
2023-04-11T05:34:23.046Z,20.83
2023-04-11T05:36:51.164Z,20.99
2023-04-11T05:39:19.439Z,21.05
2023-04-11T05:41:48.273Z,21.03
2023-04-11T05:44:22.903Z,21.17
2023-04-11T05:46:51.310Z,21.30
2023-04-11T05:49:21.986Z,21.50
2023-04-11T05:51:53.592Z,21.71
2023-04-11T05:54:32.760Z,21.95
2023-04-11T05:57:02.068Z,22.11
2023-04-11T05:59:34.619Z,22.19
2023-04-11T06:02:02.968Z,22.32
2023-04-11T06:04:31.866Z,22.47
2023-04-11T06:07:00.198Z,22.67
2023-04-11T06:09:28.305Z,22.75
2023-04-11T06:11:59.667Z,22.76
2023-04-11T06:14:31.242Z,22.86
2023-04-11T06:16:59.825Z,23.08
2023-04-11T06:19:27.993Z,23.22
2023-04-11T06:21:58.044Z,23.27
2023-04-11T06:24:36.653Z,23.40
2023-04-11T06:27:06.447Z,23.57
2023-04-11T06:29:34.563Z,23.74
2023-04-11T06:32:02.800Z,23.76
2023-04-11T06:34:30.942Z,23.86
2023-04-11T06:36:58.972Z,23.89
2023-04-11T06:39:27.324Z,23.82
2023-04-11T06:41:56.573Z,23.59
2023-04-11T06:44:30.151Z,23.42
2023-04-11T06:47:00.466Z,23.44
2023-04-11T06:49:28.676Z,23.54
2023-04-11T06:51:58.440Z,23.67
2023-04-11T06:54:27.344Z,23.86
2023-04-11T06:56:57.331Z,23.97
2023-04-11T06:59:36.496Z,24.08
2023-04-11T07:02:04.862Z,24.19
2023-04-11T07:04:34.236Z,24.35
2023-04-11T07:07:11.813Z,24.41
2023-04-11T07:09:43.859Z,24.39
2023-04-11T07:12:14.459Z,24.23
2023-04-11T07:14:49.710Z,24.00
2023-04-11T07:17:18.908Z,23.95
2023-04-11T07:19:46.885Z,24.08
2023-04-11T07:22:14.867Z,24.21
2023-04-11T07:24:43.631Z,24.29
2023-04-11T07:27:14.489Z,24.37
2023-04-11T07:29:42.918Z,24.32
2023-04-11T07:32:13.568Z,24.21
2023-04-11T07:34:42.400Z,24.28
2023-04-11T07:37:11.260Z,24.54
2023-04-11T07:39:40.786Z,24.75
2023-04-11T07:42:11.228Z,25.01
2023-04-11T07:44:41.725Z,25.17
2023-04-11T07:47:12.513Z,25.05
2023-04-11T07:49:41.569Z,24.78
2023-04-11T07:52:14.195Z,24.42
2023-04-11T07:54:44.111Z,24.24
2023-04-11T07:57:12.262Z,24.20
2023-04-11T07:59:40.390Z,24.30
2023-04-11T08:02:09.516Z,24.48
2023-04-11T08:04:37.876Z,24.63
2023-04-11T08:07:07.140Z,24.69
2023-04-11T08:09:36.514Z,24.87
2023-04-11T08:12:04.883Z,24.87
2023-04-11T08:14:36.186Z,24.79
2023-04-11T08:17:08.169Z,24.62
2023-04-11T08:19:40.440Z,24.23
2023-04-11T08:22:16.414Z,24.19
2023-04-11T08:24:44.614Z,24.16
2023-04-11T08:27:12.846Z,24.34
2023-04-11T08:29:42.849Z,24.64
2023-04-11T08:32:10.963Z,24.76
2023-04-11T08:34:39.411Z,24.70
2023-04-11T08:37:07.535Z,24.44
2023-04-11T08:39:36.401Z,24.07
2023-04-11T08:42:04.816Z,23.63
2023-04-11T08:44:32.865Z,23.15
2023-04-11T08:47:02.543Z,22.64
2023-04-11T08:49:32.857Z,22.33
2023-04-11T08:52:01.964Z,22.13
2023-04-11T08:54:30.441Z,22.03
2023-04-11T08:57:00.560Z,21.90
2023-04-11T08:59:35.626Z,21.86
2023-04-11T09:02:10.833Z,21.90
2023-04-11T09:04:40.992Z,22.01
2023-04-11T09:07:09.566Z,22.27
2023-04-11T09:09:38.343Z,22.42
2023-04-11T09:12:14.690Z,22.51
2023-04-11T09:14:43.252Z,22.56
2023-04-11T09:17:13.986Z,22.63
2023-04-11T09:19:42.349Z,22.69
2023-04-11T09:22:11.220Z,22.70
2023-04-11T09:24:39.968Z,22.78
2023-04-11T09:27:13.239Z,23.01
2023-04-11T09:29:45.706Z,23.30
2023-04-11T09:32:33.943Z,23.40
2023-04-11T09:35:09.777Z,23.15
2023-04-11T09:37:57.781Z,22.88
2023-04-11T09:40:27.018Z,22.73
2023-04-11T09:42:58.850Z,22.82
2023-04-11T09:45:27.729Z,22.97
2023-04-11T09:47:56.956Z,23.05
2023-04-11T09:50:28.386Z,23.07
2023-04-11T09:52:58.930Z,23.15
2023-04-11T09:55:27.735Z,23.36
2023-04-11T09:57:55.918Z,23.62
2023-04-11T10:00:29.230Z,23.63
2023-04-11T10:02:57.717Z,23.33
2023-04-11T10:05:27.755Z,23.03
2023-04-11T10:07:58.772Z,22.76
2023-04-11T10:10:29.342Z,22.69
2023-04-11T10:12:57.823Z,22.69
2023-04-11T10:15:26.553Z,22.60
2023-04-11T10:18:11.297Z,22.45
2023-04-11T10:20:47.379Z,22.30
2023-04-11T10:23:16.618Z,22.09
2023-04-11T10:25:55.688Z,21.87
2023-04-11T10:28:40.639Z,21.67
2023-04-11T10:31:17.235Z,21.49
2023-04-11T10:34:23.958Z,21.35
2023-04-11T10:37:04.209Z,21.26
2023-04-11T10:40:21.234Z,21.17
2023-04-11T10:42:50.176Z,20.96
2023-04-11T10:45:30.945Z,20.77
2023-04-11T10:48:10.409Z,20.66
2023-04-11T10:50:44.709Z,20.74
2023-04-11T10:53:37.151Z,20.82
2023-04-11T10:56:05.309Z,20.90
2023-04-11T10:58:40.423Z,20.99
2023-04-11T11:01:25.724Z,21.14
2023-04-11T11:04:00.259Z,21.27
2023-04-11T11:06:29.583Z,21.36
2023-04-11T11:08:59.746Z,21.54
2023-04-11T11:11:29.114Z,21.62
2023-04-11T11:14:01.269Z,21.63
2023-04-11T11:16:29.446Z,21.68
2023-04-11T11:19:06.455Z,21.79
2023-04-11T11:21:34.895Z,21.82
2023-04-11T11:24:03.627Z,21.71
2023-04-11T11:26:50.469Z,21.64
2023-04-11T11:29:34.545Z,21.67
2023-04-11T11:32:06.127Z,21.79
2023-04-11T11:34:35.416Z,21.97
2023-04-11T11:37:04.879Z,22.14
2023-04-11T11:39:34.085Z,22.29
2023-04-11T11:42:03.647Z,22.34
2023-04-11T11:44:32.725Z,22.21
2023-04-11T11:47:09.315Z,21.97
2023-04-11T11:49:57.028Z,21.65
2023-04-11T11:52:36.612Z,21.31
2023-04-11T11:55:11.479Z,21.19
2023-04-11T11:57:46.368Z,21.11
2023-04-11T12:00:16.001Z,21.15
2023-04-11T12:02:56.802Z,21.28
2023-04-11T12:05:32.612Z,21.41
2023-04-11T12:08:07.448Z,21.56
2023-04-11T12:10:37.967Z,21.70
2023-04-11T12:13:22.321Z,21.76
2023-04-11T12:15:52.614Z,21.67
2023-04-11T12:18:22.155Z,21.51
2023-04-11T12:20:51.348Z,21.41
2023-04-11T12:23:20.076Z,21.33
2023-04-11T12:25:50.065Z,21.27
2023-04-11T12:28:18.594Z,21.15
2023-04-11T12:30:46.647Z,21.07
2023-04-11T12:33:16.467Z,21.02
2023-04-11T12:35:46.087Z,21.07
2023-04-11T12:38:17.427Z,21.13
2023-04-11T12:40:47.583Z,21.21
2023-04-11T12:43:15.726Z,21.34
2023-04-11T12:45:47.021Z,21.43
2023-04-11T12:48:16.104Z,21.32
2023-04-11T12:50:45.757Z,21.08
2023-04-11T12:53:13.995Z,20.78
2023-04-11T12:55:42.267Z,20.55
2023-04-11T12:58:11.764Z,20.31
2023-04-11T13:00:39.921Z,20.18
2023-04-11T13:03:15.218Z,20.10
2023-04-11T13:05:43.892Z,20.08
2023-04-11T13:08:12.148Z,20.00
2023-04-11T13:10:40.484Z,20.02
2023-04-11T13:13:17.408Z,20.06
2023-04-11T13:15:47.004Z,20.07
2023-04-11T13:18:17.216Z,20.02
2023-04-11T13:20:46.458Z,20.05
2023-04-11T13:23:16.669Z,20.10
2023-04-11T13:25:48.647Z,20.14
2023-04-11T13:28:16.945Z,20.18
2023-04-11T13:30:46.517Z,20.16
2023-04-11T13:33:14.956Z,20.14
2023-04-11T13:35:43.170Z,20.09
2023-04-11T13:38:16.541Z,19.95
2023-04-11T13:40:45.841Z,19.94
2023-04-11T13:43:14.533Z,19.95
2023-04-11T13:45:42.765Z,19.98
2023-04-11T13:48:14.495Z,20.05
2023-04-11T13:50:42.849Z,20.10
2023-04-11T13:53:13.553Z,20.01
2023-04-11T13:55:41.990Z,20.00
2023-04-11T13:58:10.150Z,19.99
2023-04-11T14:00:39.135Z,19.95
2023-04-11T14:03:08.264Z,19.91
2023-04-11T14:05:36.884Z,19.86
2023-04-11T14:08:10.088Z,19.80
2023-04-11T14:10:41.815Z,19.76
2023-04-11T14:13:12.716Z,19.63
2023-04-11T14:15:40.648Z,19.66
2023-04-11T14:18:08.849Z,19.68
2023-04-11T14:20:38.525Z,19.69
2023-04-11T14:23:07.576Z,19.72
2023-04-11T14:25:36.348Z,19.66
2023-04-11T14:28:05.191Z,19.63
2023-04-11T14:30:33.625Z,19.56
2023-04-11T14:33:02.123Z,19.56
2023-04-11T14:35:31.695Z,19.57
2023-04-11T14:37:59.889Z,19.59
2023-04-11T14:40:27.925Z,19.58
2023-04-11T14:42:59.229Z,19.52
2023-04-11T14:45:29.832Z,19.48
2023-04-11T14:47:57.934Z,19.47
2023-04-11T14:50:27.022Z,19.42
2023-04-11T14:52:57.310Z,19.33
2023-04-11T14:55:25.543Z,19.27
2023-04-11T14:57:55.140Z,19.22
2023-04-11T15:00:25.056Z,19.20
2023-04-11T15:02:54.860Z,19.12
2023-04-11T15:05:23.658Z,19.05
2023-04-11T15:07:53.306Z,18.96
2023-04-11T15:10:22.864Z,18.90
2023-04-11T15:12:51.132Z,18.88
2023-04-11T15:15:19.114Z,18.84
2023-04-11T15:17:49.355Z,18.82
2023-04-11T15:20:19.988Z,18.76
2023-04-11T15:22:48.177Z,18.75
2023-04-11T15:25:17.100Z,18.75
2023-04-11T15:27:45.105Z,18.69
2023-04-11T15:30:13.683Z,18.59
2023-04-11T15:32:45.760Z,18.56
2023-04-11T15:35:15.193Z,18.50
2023-04-11T15:37:43.433Z,18.46
2023-04-11T15:40:12.632Z,18.43
2023-04-11T15:42:45.325Z,18.39
2023-04-11T15:45:13.984Z,18.36
2023-04-11T15:47:42.382Z,18.37
2023-04-11T15:50:12.138Z,18.35
2023-04-11T15:52:40.107Z,18.32
2023-04-11T15:55:09.992Z,18.23
2023-04-11T15:57:38.756Z,18.18
2023-04-11T16:00:10.711Z,18.13
2023-04-11T16:02:43.591Z,18.05
2023-04-11T16:05:12.688Z,18.01
2023-04-11T16:07:42.926Z,17.98
2023-04-11T16:10:11.295Z,17.97
2023-04-11T16:12:39.669Z,17.94
2023-04-11T16:15:08.620Z,17.87
2023-04-11T16:17:41.496Z,17.86
2023-04-11T16:20:12.064Z,17.82
2023-04-11T16:22:42.641Z,17.76
2023-04-11T16:25:10.988Z,17.75
2023-04-11T16:27:39.238Z,17.72
2023-04-11T16:30:10.151Z,17.68
2023-04-11T16:32:39.159Z,17.66
2023-04-11T16:35:08.400Z,17.63
2023-04-11T16:37:36.886Z,17.60
2023-04-11T16:40:11.381Z,17.58
2023-04-11T16:42:40.103Z,17.55
2023-04-11T16:45:09.431Z,17.48
2023-04-11T16:47:38.026Z,17.46
2023-04-11T16:50:06.950Z,17.46
2023-04-11T16:52:35.147Z,17.45
2023-04-11T16:55:05.823Z,17.42
2023-04-11T16:57:34.715Z,17.38
2023-04-11T17:00:10.913Z,17.39
2023-04-11T17:02:40.599Z,17.39
2023-04-11T17:05:12.196Z,17.40
2023-04-11T17:07:43.983Z,17.34
2023-04-11T17:10:12.547Z,17.35
2023-04-11T17:12:41.171Z,17.33
2023-04-11T17:15:14.664Z,17.30
2023-04-11T17:17:47.033Z,17.31
2023-04-11T17:20:15.218Z,17.30
2023-04-11T17:22:44.559Z,17.29
2023-04-11T17:25:12.701Z,17.28
2023-04-11T17:27:43.437Z,17.26
2023-04-11T17:30:12.454Z,17.26
2023-04-11T17:32:40.854Z,17.24
2023-04-11T17:35:09.569Z,17.22
2023-04-11T17:37:38.143Z,17.19
2023-04-11T17:40:14.424Z,17.17
2023-04-11T17:42:43.846Z,17.16
2023-04-11T17:47:47.047Z,17.13
2023-04-11T17:50:15.536Z,17.13
2023-04-11T17:52:45.109Z,17.11
2023-04-11T17:55:15.125Z,17.09
2023-04-11T17:57:43.724Z,17.08
2023-04-11T18:00:23.202Z,17.07
2023-04-11T18:02:57.585Z,17.04
2023-04-11T18:05:29.691Z,17.03
2023-04-11T18:07:58.975Z,17.01
2023-04-11T18:10:28.064Z,16.99
2023-04-11T18:12:59.670Z,16.96
2023-04-11T18:15:34.456Z,16.90
2023-04-11T18:18:08.034Z,16.95
2023-04-11T18:20:36.181Z,16.96
2023-04-11T18:23:04.402Z,16.91
2023-04-11T18:25:32.641Z,16.86
2023-04-11T18:28:01.080Z,16.90
2023-04-11T18:30:29.400Z,16.91
2023-04-11T18:33:02.509Z,16.92
2023-04-11T18:35:30.729Z,16.89
2023-04-11T18:38:00.007Z,16.88
2023-04-11T18:40:29.672Z,16.84
2023-04-11T18:43:00.807Z,16.85
2023-04-11T18:45:29.700Z,16.87
2023-04-11T18:47:58.316Z,16.84
2023-04-11T18:50:30.832Z,16.83
2023-04-11T18:53:04.806Z,16.80
2023-04-11T18:55:34.281Z,16.76
2023-04-11T18:58:03.809Z,16.73
2023-04-11T19:00:39.068Z,16.73
2023-04-11T19:03:15.552Z,16.74
2023-04-11T19:05:46.248Z,16.73
2023-04-11T19:08:21.793Z,16.72
2023-04-11T19:10:52.373Z,16.71
2023-04-11T19:13:20.701Z,16.72
2023-04-11T19:15:52.802Z,16.70
2023-04-11T19:18:22.495Z,16.71
2023-04-11T19:20:53.200Z,16.69
2023-04-11T19:23:23.650Z,16.69
2023-04-11T19:25:51.772Z,16.67
2023-04-11T19:28:20.164Z,16.63
2023-04-11T19:30:50.716Z,16.60
2023-04-11T19:33:27.645Z,16.59
2023-04-11T19:35:57.081Z,16.58
2023-04-11T19:38:25.332Z,16.56
2023-04-11T19:40:53.985Z,16.54
2023-04-11T19:43:22.208Z,16.51
2023-04-11T19:45:50.396Z,16.48
2023-04-11T19:48:19.811Z,16.46
2023-04-11T19:50:51.936Z,16.46
2023-04-11T19:53:20.272Z,16.44
2023-04-11T19:55:52.282Z,16.39
2023-04-11T19:58:24.046Z,16.36
2023-04-11T20:00:56.184Z,16.39
2023-04-11T20:03:25.579Z,16.38
2023-04-11T20:05:54.921Z,16.37
2023-04-11T20:08:23.255Z,16.35
2023-04-11T20:10:52.124Z,16.35
2023-04-11T20:13:20.143Z,16.34
2023-04-11T20:15:48.174Z,16.33
2023-04-11T20:18:17.650Z,16.32
2023-04-11T20:20:45.881Z,16.32
2023-04-11T20:23:18.086Z,16.32
2023-04-11T20:25:46.489Z,16.32
2023-04-11T20:28:14.584Z,16.31
2023-04-11T20:30:44.021Z,16.30
2023-04-11T20:33:12.289Z,16.33
2023-04-11T20:35:40.400Z,16.35
2023-04-11T20:38:08.968Z,16.33
2023-04-11T20:40:37.224Z,16.35
2023-04-11T20:43:06.767Z,16.36
2023-04-11T20:45:36.352Z,16.36
2023-04-11T20:48:06.521Z,16.36
2023-04-11T20:50:35.873Z,16.35
2023-04-11T20:53:04.248Z,16.35
2023-04-11T20:55:36.052Z,16.35
2023-04-11T20:58:08.545Z,16.35
2023-04-11T21:00:39.238Z,16.35
2023-04-11T21:03:11.226Z,16.32
2023-04-11T21:05:40.084Z,16.21
2023-04-11T21:08:08.352Z,16.15
2023-04-11T21:10:36.463Z,16.10
2023-04-11T21:13:04.692Z,16.11
2023-04-11T21:15:34.878Z,16.08
2023-04-11T21:18:04.276Z,16.05
2023-04-11T21:20:34.644Z,16.01
2023-04-11T21:23:02.972Z,15.99
2023-04-11T21:25:31.321Z,15.90
2023-04-11T21:27:59.347Z,15.86
2023-04-11T21:30:30.806Z,15.79
2023-04-11T21:33:04.911Z,15.65
2023-04-11T21:35:34.532Z,15.55
2023-04-11T21:38:02.597Z,15.47
2023-04-11T21:40:31.098Z,15.37
2023-04-11T21:42:59.359Z,15.27
2023-04-11T21:45:30.559Z,15.13
2023-04-11T21:48:01.124Z,15.03
2023-04-11T21:50:29.618Z,14.92
2023-04-11T21:53:03.699Z,14.78
2023-04-11T21:55:32.135Z,14.68
2023-04-11T21:58:02.678Z,14.56
2023-04-11T22:00:31.179Z,14.48
2023-04-11T22:03:01.924Z,14.41
2023-04-11T22:05:30.850Z,14.34
2023-04-11T22:08:13.036Z,14.30
2023-04-11T22:10:48.109Z,14.26
2023-04-11T22:13:18.139Z,14.25
2023-04-11T22:15:49.067Z,14.23
2023-04-11T22:18:17.097Z,14.20
2023-04-11T22:20:45.723Z,14.17
2023-04-11T22:23:13.864Z,14.15
2023-04-11T22:25:42.708Z,14.12
2023-04-11T22:28:20.542Z,14.12
2023-04-11T22:30:51.140Z,14.10
2023-04-11T22:33:19.834Z,14.07
2023-04-11T22:35:50.714Z,14.00
2023-04-11T22:38:18.678Z,13.96
2023-04-11T22:40:46.715Z,13.90
2023-04-11T22:43:14.834Z,13.87
2023-04-11T22:45:43.284Z,13.85
2023-04-11T22:48:13.975Z,13.84
2023-04-11T22:50:43.788Z,13.82
2023-04-11T22:53:18.178Z,13.80
2023-04-11T22:55:47.718Z,13.78
2023-04-11T22:58:17.500Z,13.76
2023-04-11T23:00:49.524Z,13.77
2023-04-11T23:03:18.681Z,13.79
2023-04-11T23:05:46.964Z,13.80
2023-04-11T23:08:14.965Z,13.82
2023-04-11T23:10:42.992Z,13.85
2023-04-11T23:13:14.341Z,13.84
2023-04-11T23:15:42.973Z,13.85
2023-04-11T23:18:11.320Z,13.86
2023-04-11T23:20:42.050Z,13.86
2023-04-11T23:23:10.333Z,13.86
2023-04-11T23:25:40.656Z,13.90
2023-04-11T23:28:08.637Z,13.91
2023-04-11T23:30:37.525Z,13.93
2023-04-11T23:33:08.637Z,13.96
2023-04-11T23:35:37.828Z,13.95
2023-04-11T23:38:06.317Z,13.96
2023-04-11T23:40:41.232Z,13.95
2023-04-11T23:43:10.191Z,13.93
2023-04-11T23:45:38.430Z,13.93
2023-04-11T23:48:09.458Z,13.91
2023-04-11T23:50:38.192Z,13.90
2023-04-11T23:53:06.753Z,13.90
2023-04-11T23:55:35.516Z,13.89
2023-04-11T23:58:04.251Z,13.88
